Time;durP1;ratioP1;P1;durP2;ratioP2;P2;SDS_P1;SDS_P2;PMS_P1;PMS_P2;Temp;Humidity;BMP_temperature;BMP_pressure;BME280_temperature;BME280_humidity;BME280_pressure;Samples;Min_cycle;Max_cycle;Signal;HPM_P1;HPM_P2
2022/10/29 00:00:21;;;;;;;6.72;4.18;;;;;;;15.24;79.05;98874.59;4990442;28;20477;-86
2022/10/29 00:02:46;;;;;;;6.85;4.00;;;;;;;15.27;79.08;98885.53;4990591;28;20034;-86
2022/10/29 00:05:12;;;;;;;7.88;4.28;;;;;;;15.22;79.25;98882.69;4990257;28;20038;-86
2022/10/29 00:07:38;;;;;;;9.45;4.10;;;;;;;15.29;79.02;98893.22;4991363;28;20038;-86
2022/10/29 00:10:04;;;;;;;7.35;4.35;;;;;;;15.30;79.44;98886.16;4991777;28;20605;-86
2022/10/29 00:12:29;;;;;;;10.38;5.03;;;;;;;15.30;79.58;98891.44;4991900;28;20038;-86
2022/10/29 00:14:55;;;;;;;11.63;4.32;;;;;;;15.32;79.54;98898.13;4991099;28;20046;-86
2022/10/29 00:17:20;;;;;;;6.57;4.07;;;;;;;15.23;79.48;98884.34;4990350;28;20084;-86
2022/10/29 00:19:46;;;;;;;5.80;4.50;;;;;;;15.27;79.58;98895.28;4991374;28;20034;-86
2022/10/29 00:22:11;;;;;;;6.75;4.68;;;;;;;15.25;79.16;98900.78;5005934;28;20629;-87
2022/10/29 00:24:37;;;;;;;7.10;4.13;;;;;;;15.18;79.50;98878.88;4991198;28;20493;-86
2022/10/29 00:27:02;;;;;;;8.90;4.80;;;;;;;15.26;79.71;98889.19;4991336;28;20074;-86
2022/10/29 00:29:28;;;;;;;8.18;5.45;;;;;;;15.27;79.46;98882.06;4990994;28;20054;-87
2022/10/29 00:31:53;;;;;;;11.23;4.63;;;;;;;15.21;79.66;98874.97;4990981;28;20044;-86
2022/10/29 00:34:19;;;;;;;8.75;4.80;;;;;;;15.13;79.74;98868.13;4990621;28;20030;-86
2022/10/29 00:36:44;;;;;;;5.60;4.20;;;;;;;15.09;80.06;98861.63;5006402;28;20062;-86
2022/10/29 00:39:16;;;;;;;7.82;4.32;;;;;;;15.11;80.24;98867.50;4990539;28;20038;-87
2022/10/29 00:41:42;;;;;;;8.88;4.40;;;;;;;15.07;80.77;98874.25;4988746;28;20030;-87
2022/10/29 00:44:19;;;;;;;9.27;4.55;;;;;;;15.09;80.70;98887.22;4990770;28;20023;-87
2022/10/29 00:47:03;;;;;;;6.53;4.43;;;;;;;15.13;80.74;98889.25;4990405;28;20045;-86
2022/10/29 00:49:33;;;;;;;4.85;3.83;;;;;;;15.13;80.54;98888.44;5005210;28;20050;-86
2022/10/29 00:52:03;;;;;;;7.78;4.50;;;;;;;15.04;80.23;98879.94;4990446;28;20069;-87
2022/10/29 00:54:33;;;;;;;10.80;4.90;;;;;;;14.99;80.10;98890.31;4991202;28;20030;-86
2022/10/29 00:57:09;;;;;;;9.38;5.25;;;;;;;14.92;80.59;98885.03;4989275;28;20101;-86
2022/10/29 00:59:35;;;;;;;9.77;4.75;;;;;;;14.89;80.70;98897.88;4991381;28;20045;-86
2022/10/29 01:02:01;;;;;;;7.13;4.90;;;;;;;14.83;80.99;98898.69;4991329;28;20446;-86
2022/10/29 01:04:27;;;;;;;7.35;4.78;;;;;;;14.75;81.62;98897.06;4990713;28;20088;-87
2022/10/29 01:06:54;;;;;;;8.80;4.28;;;;;;;14.61;82.20;98891.03;4990776;28;20045;-86
2022/10/29 01:09:23;;;;;;;8.13;4.72;;;;;;;14.56;82.54;98879.44;4989594;28;20083;-86
2022/10/29 01:12:28;;;;;;;7.70;4.40;;;;;;;14.53;82.73;98871.97;4986812;28;20030;-86
2022/10/29 01:15:18;;;;;;;7.80;4.20;;;;;;;14.48;83.32;98859.38;4990452;28;20042;-86
2022/10/29 01:18:08;;;;;;;7.07;4.30;;;;;;;14.49;84.09;98858.34;4990385;28;20106;-86
2022/10/29 01:21:13;;;;;;;8.55;4.30;;;;;;;14.53;84.40;98851.66;4990734;28;20158;-86
2022/10/29 01:24:23;;;;;;;8.45;4.35;;;;;;;14.56;84.79;98848.59;4989292;28;20038;-86
2022/10/29 01:27:23;;;;;;;10.13;4.35;;;;;;;14.56;84.71;98840.66;4987832;28;20614;-87
2022/10/29 01:30:20;;;;;;;10.27;4.22;;;;;;;14.58;84.78;98843.13;4989700;28;20047;-86
2022/10/29 01:33:18;;;;;;;6.82;4.32;;;;;;;14.60;84.45;98855.09;4981909;28;20301;-86
2022/10/29 01:36:13;;;;;;;5.93;4.35;;;;;;;14.57;83.86;98842.28;4978768;28;20104;-87
2022/10/29 01:39:02;;;;;;;7.45;4.35;;;;;;;14.57;83.02;98847.56;4974758;28;20045;-87
2022/10/29 01:41:40;;;;;;;6.95;4.30;;;;;;;14.52;82.52;98855.31;4987953;28;20052;-86
2022/10/29 01:44:56;;;;;;;8.65;5.05;;;;;;;14.58;82.67;98853.69;4990717;28;20030;-86
2022/10/29 01:47:27;;;;;;;11.18;4.85;;;;;;;14.54;82.28;98848.00;4990389;28;20128;-86
2022/10/29 01:50:00;;;;;;;9.52;5.32;;;;;;;14.48;81.77;98843.53;4990985;28;20027;-86
2022/10/29 01:52:31;;;;;;;6.13;3.85;;;;;;;14.41;82.79;98846.16;4994646;28;20053;-86
2022/10/29 01:54:57;;;;;;;9.43;4.70;;;;;;;14.34;83.67;98836.63;5008873;28;20029;-87
2022/10/29 01:57:34;;;;;;;6.90;4.30;;;;;;;14.35;84.23;98840.91;4994348;28;20113;-86
2022/10/29 02:00:11;;;;;;;8.60;4.07;;;;;;;14.37;84.92;98846.78;4994127;28;20042;-86
2022/10/29 02:03:03;;;;;;;6.82;4.47;;;;;;;14.39;85.28;98839.44;5002262;28;20099;-88
2022/10/29 02:05:55;;;;;;;9.45;4.07;;;;;;;14.45;84.56;98842.09;4993923;28;20109;-87
2022/10/29 02:08:47;;;;;;;7.63;4.60;;;;;;;14.37;83.80;98833.56;4989445;28;20033;-87
2022/10/29 02:11:40;;;;;;;8.10;4.47;;;;;;;14.37;83.86;98846.78;4993946;28;20390;-87
2022/10/29 02:14:35;;;;;;;6.13;4.00;;;;;;;14.38;84.02;98843.91;4994221;28;20045;-86
2022/10/29 02:17:02;;;;;;;9.10;4.47;;;;;;;14.29;83.77;98833.81;4990685;28;20038;-87
2022/10/29 02:19:33;;;;;;;12.82;5.45;;;;;;;14.23;83.59;98832.78;4993607;28;20032;-87
2022/10/29 02:21:59;;;;;;;5.70;3.88;;;;;;;14.27;83.50;98844.53;4994370;28;20110;-86
2022/10/29 02:24:24;;;;;;;6.22;4.15;;;;;;;14.25;82.92;98830.75;4993432;28;20038;-86
2022/10/29 02:26:51;;;;;;;7.57;4.35;;;;;;;14.24;82.48;98831.78;4993387;28;20046;-87
2022/10/29 02:29:17;;;;;;;6.35;4.22;;;;;;;14.22;82.73;98838.28;4993618;28;20065;-86
2022/10/29 02:31:43;;;;;;;7.60;3.70;;;;;;;14.16;82.89;98838.06;4992853;28;20038;-86
2022/10/29 02:34:08;;;;;;;7.45;4.47;;;;;;;14.10;83.05;98825.72;4993424;28;20038;-86
2022/10/29 02:36:34;;;;;;;9.02;4.00;;;;;;;14.13;83.29;98821.84;4993612;28;20038;-86
2022/10/29 02:38:59;;;;;;;7.13;4.40;;;;;;;14.13;83.24;98827.09;4992913;28;20038;-86
2022/10/29 02:41:25;;;;;;;8.00;4.25;;;;;;;14.10;83.73;98823.06;4990283;28;20308;-87
2022/10/29 02:43:50;;;;;;;7.40;3.92;;;;;;;14.07;83.66;98825.28;4993153;28;20034;-86
2022/10/29 02:46:20;;;;;;;5.85;4.03;;;;;;;13.98;84.41;98816.78;4993585;28;20065;-87
2022/10/29 02:48:47;;;;;;;6.82;3.92;;;;;;;13.97;84.47;98820.41;4992930;28;20046;-87
2022/10/29 02:51:13;;;;;;;5.93;4.03;;;;;;;13.98;84.09;98822.06;4986865;28;20038;-86
2022/10/29 02:53:39;;;;;;;8.07;4.10;;;;;;;13.93;84.23;98819.22;4993189;28;20035;-86
2022/10/29 02:56:06;;;;;;;5.53;4.25;;;;;;;13.79;84.76;98804.41;4993699;28;20103;-86
2022/10/29 02:58:33;;;;;;;8.57;4.45;;;;;;;13.82;85.25;98804.81;4993118;28;20497;-86
2022/10/29 03:00:59;;;;;;;8.30;4.63;;;;;;;13.79;84.30;98812.31;4993113;28;20442;-87
2022/10/29 03:03:25;;;;;;;6.45;4.43;;;;;;;13.73;84.74;98807.84;4992836;28;20105;-86
2022/10/29 03:05:51;;;;;;;7.60;4.55;;;;;;;13.75;84.56;98805.84;4997760;28;21032;-87
2022/10/29 03:08:17;;;;;;;4.40;3.80;;;;;;;13.72;84.41;98806.22;4992506;28;20089;-86
2022/10/29 03:10:43;;;;;;;8.00;4.30;;;;;;;13.75;84.35;98819.00;4992925;28;20038;-86
2022/10/29 03:13:08;;;;;;;7.00;4.30;;;;;;;13.79;84.24;98807.03;4992567;28;20533;-87
2022/10/29 03:15:35;;;;;;;6.18;4.10;;;;;;;13.71;83.94;98796.69;4993021;28;20030;-87
2022/10/29 03:18:01;;;;;;;7.05;4.20;;;;;;;13.69;84.48;98801.38;4992652;28;20038;-86
2022/10/29 03:20:26;;;;;;;9.90;5.30;;;;;;;13.69;85.85;98801.38;4992422;28;20797;-86
2022/10/29 03:22:52;;;;;;;9.35;4.38;;;;;;;13.72;85.86;98807.03;4991829;28;20038;-86
2022/10/29 03:25:17;;;;;;;10.30;4.22;;;;;;;13.64;84.30;98810.69;4992297;28;20650;-86
2022/10/29 03:27:44;;;;;;;7.32;4.15;;;;;;;13.59;84.41;98810.47;4990343;28;20630;-87
2022/10/29 03:30:15;;;;;;;9.23;4.20;;;;;;;13.61;84.28;98816.38;5007397;28;20061;-87
2022/10/29 03:32:44;;;;;;;9.65;4.32;;;;;;;13.59;84.42;98814.94;4992504;28;20074;-87
2022/10/29 03:35:13;;;;;;;7.80;4.28;;;;;;;13.62;84.65;98823.25;4991860;28;20517;-86
2022/10/29 03:37:39;;;;;;;8.32;4.35;;;;;;;13.67;84.56;98827.91;4992199;28;20038;-87
2022/10/29 03:40:06;;;;;;;8.07;4.22;;;;;;;13.72;84.30;98827.31;4992535;28;20497;-87
2022/10/29 03:42:32;;;;;;;7.85;4.47;;;;;;;13.72;84.62;98827.31;5002797;28;20045;-87
2022/10/29 03:45:03;;;;;;;7.03;4.45;;;;;;;13.74;84.56;98820.03;4992408;28;20062;-87
2022/10/29 03:47:29;;;;;;;10.15;4.97;;;;;;;13.77;84.11;98827.53;4991964;28;20172;-86
2022/10/29 03:49:54;;;;;;;7.30;4.13;;;;;;;13.70;84.13;98813.53;4988150;28;20041;-86
2022/10/29 03:52:20;;;;;;;8.15;4.60;;;;;;;13.55;84.57;98814.50;4988735;28;20045;-86
2022/10/29 03:54:46;;;;;;;6.63;4.03;;;;;;;13.55;85.19;98819.78;4991753;28;20053;-87
2022/10/29 03:57:12;;;;;;;8.07;4.88;;;;;;;13.65;84.97;98832.59;4992253;28;20422;-87
2022/10/29 03:59:37;;;;;;;8.10;4.60;;;;;;;13.64;85.24;98837.03;4991803;28;20109;-87
2022/10/29 04:02:03;;;;;;;8.68;4.50;;;;;;;13.61;85.07;98828.72;4994597;28;20042;-87
2022/10/29 04:04:28;;;;;;;6.68;4.25;;;;;;;13.61;85.05;98834.81;4991389;28;20038;-87
2022/10/29 04:06:54;;;;;;;6.00;4.75;;;;;;;13.60;84.92;98827.09;4991812;28;20034;-87
2022/10/29 04:09:19;;;;;;;6.93;4.10;;;;;;;13.60;84.97;98841.09;4991069;28;20494;-87
2022/10/29 04:11:45;;;;;;;5.07;3.92;;;;;;;13.60;83.92;98846.34;4991671;28;20038;-87
2022/10/29 04:14:10;;;;;;;8.90;4.38;;;;;;;13.55;84.19;98838.22;4991889;28;20030;-87
2022/10/29 04:16:36;;;;;;;6.25;4.60;;;;;;;13.56;84.53;98837.25;4992293;28;20031;-86
2022/10/29 04:19:02;;;;;;;5.03;4.53;;;;;;;13.56;84.25;98844.34;4991218;28;20062;-86
2022/10/29 04:21:28;;;;;;;10.15;4.82;;;;;;;13.56;84.21;98844.34;5006464;28;20042;-87
2022/10/29 04:23:53;;;;;;;9.48;4.53;;;;;;;13.52;84.08;98846.56;4991680;28;20033;-86
2022/10/29 04:26:19;;;;;;;7.80;4.32;;;;;;;13.43;84.37;98850.38;4991678;28;20030;-86
2022/10/29 04:28:49;;;;;;;7.65;4.55;;;;;;;13.42;84.93;98854.03;4991350;28;20049;-86
2022/10/29 04:31:15;;;;;;;8.35;4.38;;;;;;;13.29;84.98;98848.72;4990567;28;20030;-87
2022/10/29 04:33:41;;;;;;;5.55;4.00;;;;;;;13.31;85.20;98863.34;4991100;28;20042;-87
2022/10/29 04:36:07;;;;;;;7.50;4.40;;;;;;;13.27;85.16;98856.03;4991423;28;20457;-86
2022/10/29 04:38:33;;;;;;;8.68;4.18;;;;;;;13.26;85.15;98849.13;4991330;28;20038;-86
2022/10/29 04:41:00;;;;;;;6.50;4.18;;;;;;;13.26;85.17;98852.59;4991138;28;20034;-86
2022/10/29 04:43:28;;;;;;;6.70;4.20;;;;;;;13.34;85.36;98857.66;4991876;28;20044;-87
2022/10/29 04:45:56;;;;;;;7.93;4.25;;;;;;;13.31;85.15;98852.81;4991305;28;20124;-86
2022/10/29 04:48:23;;;;;;;4.82;4.07;;;;;;;13.32;85.05;98857.06;4990653;28;20041;-86
2022/10/29 04:50:49;;;;;;;8.18;4.78;;;;;;;13.23;84.66;98844.25;4990559;28;20030;-87
2022/10/29 04:53:16;;;;;;;5.95;4.20;;;;;;;13.21;84.86;98862.91;4990851;28;20038;-86
2022/10/29 04:55:42;;;;;;;6.25;4.45;;;;;;;13.07;84.97;98845.38;4991222;28;20390;-86
2022/10/29 04:58:14;;;;;;;5.57;4.57;;;;;;;13.15;85.24;98857.56;4991009;28;20597;-86
2022/10/29 05:00:41;;;;;;;8.73;4.65;;;;;;;13.04;85.49;98843.97;4990663;28;20119;-87
2022/10/29 05:03:07;;;;;;;6.25;4.28;;;;;;;13.15;85.60;98854.94;4990899;28;20042;-86
2022/10/29 05:05:33;;;;;;;9.55;4.63;;;;;;;13.16;85.45;98848.66;4991123;28;20409;-86
2022/10/29 05:08:01;;;;;;;8.25;4.57;;;;;;;13.20;85.27;98847.25;4990994;28;20073;-86
2022/10/29 05:10:31;;;;;;;7.22;4.80;;;;;;;13.19;85.62;98842.97;4990559;28;20125;-87
2022/10/29 05:13:03;;;;;;;7.28;4.32;;;;;;;13.19;85.55;98849.06;4990718;28;20052;-86
2022/10/29 05:15:29;;;;;;;6.40;3.70;;;;;;;13.19;85.82;98838.53;4988200;28;20109;-86
2022/10/29 05:17:56;;;;;;;6.18;4.47;;;;;;;13.20;85.97;98839.38;4988688;28;20046;-86
2022/10/29 05:20:23;;;;;;;6.15;4.28;;;;;;;13.25;85.22;98842.22;4988613;28;20166;-86
2022/10/29 05:22:49;;;;;;;6.63;4.05;;;;;;;13.27;85.32;98840.22;5005050;28;20423;-86
2022/10/29 05:25:15;;;;;;;9.60;4.50;;;;;;;13.29;85.70;98832.91;4991864;28;20069;-85
2022/10/29 05:27:41;;;;;;;9.40;3.97;;;;;;;13.30;85.25;98827.44;4994037;28;20114;-86
2022/10/29 05:30:07;;;;;;;9.10;4.22;;;;;;;13.36;84.67;98842.44;4993395;28;20475;-86
2022/10/29 05:32:33;;;;;;;10.13;4.40;;;;;;;13.30;84.31;98829.28;4993355;28;20046;-86
2022/10/29 05:34:59;;;;;;;9.45;4.43;;;;;;;13.33;84.07;98848.13;4993525;28;20047;-85
2022/10/29 05:37:26;;;;;;;8.10;4.18;;;;;;;13.36;84.11;98845.09;4990382;28;20500;-87
2022/10/29 05:39:52;;;;;;;6.20;4.15;;;;;;;13.39;84.60;98843.91;4994338;28;20038;-87
2022/10/29 05:42:18;;;;;;;7.43;5.25;;;;;;;13.39;84.56;98841.25;4987543;28;20038;-86
2022/10/29 05:44:44;;;;;;;7.07;4.25;;;;;;;13.41;84.81;98836.59;4994298;28;20038;-86
2022/10/29 05:47:10;;;;;;;8.73;4.57;;;;;;;13.45;84.41;98837.84;4994229;28;20038;-87
2022/10/29 05:49:35;;;;;;;6.43;4.38;;;;;;;13.52;84.27;98843.13;4994419;28;20045;-86
2022/10/29 05:52:01;;;;;;;8.52;4.57;;;;;;;13.50;84.12;98847.78;4994167;28;20070;-87
2022/10/29 05:54:26;;;;;;;5.22;3.95;;;;;;;13.35;84.79;98827.66;4993875;28;20046;-86
2022/10/29 05:56:52;;;;;;;6.93;4.32;;;;;;;13.45;85.06;98840.47;4991257;28;20039;-86
2022/10/29 05:59:17;;;;;;;7.00;4.60;;;;;;;13.40;84.91;98845.53;4987188;28;20040;-87
2022/10/29 06:01:43;;;;;;;7.50;4.20;;;;;;;13.29;85.29;98843.47;4993441;28;20038;-87
2022/10/29 06:04:08;;;;;;;8.40;4.28;;;;;;;13.32;85.24;98856.25;4993652;28;20034;-86
2022/10/29 06:06:34;;;;;;;7.13;4.70;;;;;;;13.27;85.42;98859.47;4993418;28;20101;-87
2022/10/29 06:08:59;;;;;;;7.88;4.43;;;;;;;13.26;85.79;98854.41;4993788;28;20506;-87
2022/10/29 06:11:25;;;;;;;5.47;4.30;;;;;;;13.23;85.75;98860.06;4992096;28;20308;-87
2022/10/29 06:13:54;;;;;;;5.13;4.55;;;;;;;13.17;85.75;98861.63;4993812;28;20121;-86
2022/10/29 06:16:21;;;;;;;8.73;5.00;;;;;;;13.21;86.26;98856.81;4992081;28;20022;-87
2022/10/29 06:18:46;;;;;;;8.25;4.68;;;;;;;13.19;86.30;98858.78;4994528;28;20045;-87
2022/10/29 06:21:12;;;;;;;8.02;4.75;;;;;;;13.21;86.30;98862.91;4989414;28;20034;-87
2022/10/29 06:23:37;;;;;;;6.13;4.55;;;;;;;13.19;86.21;98853.50;4976971;28;20035;-86
2022/10/29 06:26:03;;;;;;;7.55;4.30;;;;;;;13.15;86.12;98857.56;4993185;28;20042;-86
2022/10/29 06:28:29;;;;;;;7.35;4.80;;;;;;;13.18;86.09;98854.53;4993494;28;20053;-87
2022/10/29 06:30:54;;;;;;;7.38;4.68;;;;;;;13.14;86.36;98859.41;4993312;28;20038;-87
2022/10/29 06:33:21;;;;;;;8.90;4.43;;;;;;;13.14;86.13;98859.41;4993231;28;20044;-87
2022/10/29 06:35:47;;;;;;;7.85;4.22;;;;;;;13.10;86.40;98856.34;4993627;28;20456;-87
2022/10/29 06:38:13;;;;;;;8.98;4.95;;;;;;;13.13;87.33;98863.84;5009637;28;20042;-86
2022/10/29 06:40:40;;;;;;;8.60;4.70;;;;;;;13.15;87.08;98857.56;5009045;28;20402;-86
2022/10/29 06:43:10;;;;;;;9.20;5.47;;;;;;;13.03;86.00;98831.81;4989768;28;20035;-86
2022/10/29 06:45:36;;;;;;;9.65;8.13;;;;;;;13.21;86.31;98851.56;4994184;28;20041;-87
2022/10/29 06:48:03;;;;;;;8.50;5.70;;;;;;;13.23;85.89;98852.16;4993752;28;20034;-86
2022/10/29 06:50:29;;;;;;;7.72;5.07;;;;;;;13.27;86.00;98846.28;5008530;28;20068;-87
2022/10/29 06:53:03;;;;;;;7.03;4.95;;;;;;;13.30;86.04;98842.44;4993440;28;20046;-86
2022/10/29 06:55:30;;;;;;;6.28;4.15;;;;;;;13.33;86.34;98837.59;4993200;28;20069;-86
2022/10/29 06:58:11;;;;;;;8.40;4.90;;;;;;;13.37;86.42;98852.00;4992668;28;20030;-86
2022/10/29 07:00:37;;;;;;;9.40;5.10;;;;;;;13.36;86.15;98847.72;4992675;28;20045;-87
2022/10/29 07:03:03;;;;;;;10.15;5.38;;;;;;;13.34;86.38;98854.22;4992870;28;20038;-86
2022/10/29 07:05:30;;;;;;;18.10;8.75;;;;;;;13.30;86.84;98851.16;5009302;28;20042;-86
2022/10/29 07:07:59;;;;;;;24.90;11.13;;;;;;;13.39;86.71;98843.91;4993336;28;20046;-86
2022/10/29 07:10:28;;;;;;;15.77;8.52;;;;;;;13.43;86.24;98850.38;4992658;28;20034;-86
2022/10/29 07:12:55;;;;;;;13.40;6.78;;;;;;;13.39;85.72;98844.72;4992619;28;20092;-86
2022/10/29 07:15:21;;;;;;;15.10;6.68;;;;;;;13.44;85.94;98846.75;4992566;28;20095;-86
2022/10/29 07:18:13;;;;;;;11.13;5.70;;;;;;;13.54;85.97;98841.06;4992802;28;20096;-86
2022/10/29 07:20:44;;;;;;;7.32;4.95;;;;;;;13.54;85.75;98844.53;4994466;28;20049;-85
2022/10/29 07:23:11;;;;;;;6.82;4.70;;;;;;;13.58;85.92;98845.75;4993507;28;20085;-86
2022/10/29 07:25:39;;;;;;;8.93;5.97;;;;;;;13.69;85.83;98854.09;4993645;28;20030;-86
2022/10/29 07:28:13;;;;;;;14.40;6.93;;;;;;;13.66;86.30;98856.09;4992650;28;20104;-86
2022/10/29 07:30:39;;;;;;;20.40;11.57;;;;;;;13.71;85.88;98863.41;5008141;28;20050;-86
2022/10/29 07:33:05;;;;;;;20.40;11.48;;;;;;;13.82;85.43;98875.19;4992550;28;20034;-86
2022/10/29 07:35:33;;;;;;;23.33;11.63;;;;;;;13.90;85.50;98864.44;4992512;28;20030;-87
2022/10/29 07:38:01;;;;;;;18.65;10.13;;;;;;;13.96;85.37;98858.34;4993417;28;20041;-86
2022/10/29 07:40:26;;;;;;;12.73;6.70;;;;;;;13.96;84.94;98857.53;4990538;28;20027;-86
2022/10/29 07:42:53;;;;;;;9.40;6.18;;;;;;;14.04;85.57;98867.91;4988872;28;20041;-86
2022/10/29 07:45:19;;;;;;;12.82;7.13;;;;;;;14.04;85.00;98867.91;4996665;28;20038;-86
2022/10/29 07:47:45;;;;;;;8.02;5.18;;;;;;;13.99;85.31;98857.97;4992112;28;20694;-86
2022/10/29 07:50:13;;;;;;;8.13;4.90;;;;;;;14.06;85.14;98871.16;4993586;28;20034;-86
2022/10/29 07:52:40;;;;;;;7.75;5.40;;;;;;;14.01;85.46;98858.56;4992968;28;20065;-86
2022/10/29 07:55:07;;;;;;;8.35;5.05;;;;;;;14.09;84.96;98871.56;5007995;28;20034;-86
2022/10/29 07:57:33;;;;;;;5.57;4.72;;;;;;;14.13;85.39;98877.22;5002070;28;20042;-86
2022/10/29 07:59:58;;;;;;;7.25;5.22;;;;;;;14.27;85.72;98876.19;4992972;28;20042;-86
2022/10/29 08:02:24;;;;;;;7.90;4.68;;;;;;;14.34;84.93;98874.41;4992579;28;20053;-86
2022/10/29 08:04:49;;;;;;;13.10;6.50;;;;;;;14.44;84.99;98884.50;4991050;28;20049;-86
2022/10/29 08:07:15;;;;;;;7.63;5.53;;;;;;;14.53;84.54;98878.06;4992623;28;20038;-86
2022/10/29 08:09:40;;;;;;;9.75;5.88;;;;;;;14.64;84.41;98880.06;4993505;28;20114;-86
2022/10/29 08:12:10;;;;;;;11.35;5.35;;;;;;;14.70;83.53;98881.06;4992623;28;20780;-85
2022/10/29 08:14:36;;;;;;;10.27;5.80;;;;;;;14.82;83.91;98875.97;4992955;28;20513;-86
2022/10/29 08:17:01;;;;;;;13.50;6.53;;;;;;;14.94;84.77;98872.47;4993042;28;20042;-86
2022/10/29 08:19:28;;;;;;;7.93;6.63;;;;;;;14.99;83.05;98874.44;4992943;28;20446;-86
2022/10/29 08:21:55;;;;;;;11.13;6.53;;;;;;;15.07;83.23;98874.25;4992304;28;20042;-86
2022/10/29 08:24:21;;;;;;;11.93;6.72;;;;;;;15.10;82.89;98880.94;5006870;28;20340;-86
2022/10/29 08:26:49;;;;;;;10.18;7.25;;;;;;;15.20;83.64;98871.53;5005417;28;20042;-85
2022/10/29 08:29:14;;;;;;;9.63;6.05;;;;;;;15.31;82.70;98869.25;4989996;28;20117;-86
2022/10/29 08:31:40;;;;;;;7.88;6.40;;;;;;;15.36;82.71;98861.50;4990846;28;20122;-85
2022/10/29 08:34:05;;;;;;;9.93;5.70;;;;;;;15.39;81.89;98866.38;4988851;28;20089;-86
2022/10/29 08:36:31;;;;;;;7.32;5.20;;;;;;;15.44;81.46;98875.28;5005134;28;20042;-86
2022/10/29 08:38:57;;;;;;;8.40;4.80;;;;;;;15.50;81.72;98866.50;4989475;28;20046;-86
2022/10/29 08:42:02;;;;;;;8.10;5.22;;;;;;;15.64;81.24;98872.53;4985926;28;20042;-86
2022/10/29 08:45:11;;;;;;;7.05;5.07;;;;;;;15.74;80.38;98867.59;4989160;28;20041;-86
2022/10/29 08:48:18;;;;;;;11.80;5.68;;;;;;;15.92;80.49;98872.16;4986979;28;20039;-86
2022/10/29 08:50:51;;;;;;;9.98;6.50;;;;;;;16.12;80.00;98882.56;4990219;28;20524;-86
2022/10/29 08:53:22;;;;;;;9.30;7.10;;;;;;;16.27;80.34;98880.44;5007291;28;20030;-86
2022/10/29 08:55:48;;;;;;;13.63;5.78;;;;;;;16.35;79.84;98875.88;5006249;28;20592;-86
2022/10/29 08:58:34;;;;;;;8.60;5.35;;;;;;;16.45;79.48;98878.84;4990959;28;20093;-86
2022/10/29 09:01:00;;;;;;;7.10;4.95;;;;;;;16.46;78.34;98885.75;4989897;28;20053;-86
2022/10/29 09:03:30;;;;;;;8.32;4.93;;;;;;;16.53;78.06;98878.56;4987967;28;20108;-86
2022/10/29 09:06:10;;;;;;;11.87;5.80;;;;;;;16.58;78.12;98873.41;4991479;28;20125;-86
2022/10/29 09:09:03;;;;;;;10.77;5.03;;;;;;;16.66;78.28;98875.78;4991744;28;20340;-86
2022/10/29 09:11:59;;;;;;;10.45;5.20;;;;;;;16.70;78.39;98868.19;4989556;28;20042;-86
2022/10/29 09:14:45;;;;;;;10.10;5.30;;;;;;;16.73;78.94;98873.91;4990636;28;20030;-86
2022/10/29 09:17:31;;;;;;;9.52;5.65;;;;;;;16.77;77.10;98876.91;4988438;28;20034;-86
2022/10/29 09:20:29;;;;;;;8.75;5.05;;;;;;;16.90;78.18;98879.41;4989845;28;20038;-86
2022/10/29 09:23:16;;;;;;;7.75;4.75;;;;;;;16.92;76.12;98876.56;4979074;28;20038;-86
2022/10/29 09:26:04;;;;;;;8.70;5.30;;;;;;;16.84;76.39;98870.50;5002616;28;20034;-86
2022/10/29 09:29:01;;;;;;;9.48;6.00;;;;;;;16.96;77.08;98877.72;4988210;28;20077;-86
2022/10/29 09:32:02;;;;;;;8.80;4.97;;;;;;;17.09;76.78;98880.22;4990258;28;20410;-86
2022/10/29 09:34:38;;;;;;;8.98;5.38;;;;;;;17.20;74.65;98874.16;4990450;28;20137;-86
2022/10/29 09:37:15;;;;;;;10.05;5.53;;;;;;;17.31;75.44;98868.09;4990072;28;20069;-86
2022/10/29 09:39:46;;;;;;;12.40;5.75;;;;;;;17.41;74.18;98864.13;5003635;28;20042;-86
2022/10/29 09:42:24;;;;;;;11.32;5.95;;;;;;;17.49;74.12;98867.25;4991064;28;20070;-86
2022/10/29 09:44:57;;;;;;;11.45;6.63;;;;;;;17.55;74.38;98865.56;4987078;28;20038;-86
2022/10/29 09:47:52;;;;;;;11.75;5.88;;;;;;;17.62;73.73;98860.94;4986213;28;20045;-86
2022/10/29 09:50:47;;;;;;;10.35;6.05;;;;;;;17.77;73.37;98861.38;4987078;28;20066;-86
2022/10/29 09:53:12;;;;;;;8.00;5.35;;;;;;;17.97;75.38;98865.56;4990999;28;20033;-86
2022/10/29 09:55:42;;;;;;;11.80;6.00;;;;;;;18.09;73.34;98856.59;4973690;28;20042;-86
2022/10/29 09:58:27;;;;;;;9.30;5.47;;;;;;;18.30;72.40;98852.56;4989220;28;20057;-86
2022/10/29 10:00:56;;;;;;;12.13;5.43;;;;;;;18.65;70.58;98854.38;4989033;28;20066;-86
2022/10/29 10:03:29;;;;;;;8.95;5.15;;;;;;;18.95;69.01;98855.06;4986939;28;20042;-86
2022/10/29 10:06:02;;;;;;;10.38;4.95;;;;;;;19.29;68.94;98855.16;4989340;28;20027;-86
2022/10/29 10:08:29;;;;;;;7.95;5.07;;;;;;;19.56;67.62;98854.59;4989155;28;20034;-86
2022/10/29 10:11:03;;;;;;;10.52;5.20;;;;;;;19.59;66.43;98848.81;4986669;28;20038;-86
2022/10/29 10:13:54;;;;;;;11.18;4.90;;;;;;;19.46;65.22;98845.38;4991207;28;20046;-85
2022/10/29 10:16:28;;;;;;;7.43;4.90;;;;;;;19.61;66.11;98838.72;4992669;28;20075;-85
2022/10/29 10:18:54;;;;;;;9.10;4.75;;;;;;;19.83;64.26;98842.31;4992199;28;20032;-85
2022/10/29 10:21:24;;;;;;;8.10;4.68;;;;;;;20.11;63.94;98829.97;4990621;28;20026;-86
2022/10/29 10:23:53;;;;;;;9.52;4.70;;;;;;;20.37;64.82;98829.28;5007319;28;20030;-86
2022/10/29 10:26:29;;;;;;;7.03;4.45;;;;;;;20.45;63.96;98834.25;4989731;28;20070;-86
2022/10/29 10:29:18;;;;;;;8.45;4.47;;;;;;;20.50;63.79;98833.50;4992037;28;20145;-85
2022/10/29 10:31:56;;;;;;;8.60;4.53;;;;;;;20.44;63.44;98835.25;5007202;28;20038;-85
2022/10/29 10:34:36;;;;;;;7.95;4.28;;;;;;;20.43;62.74;98828.31;4988093;28;20541;-86
2022/10/29 10:37:09;;;;;;;6.72;4.65;;;;;;;20.38;62.28;98830.91;4991242;28;20041;-86
2022/10/29 10:39:41;;;;;;;12.13;4.80;;;;;;;20.37;63.37;98812.50;5006633;28;20034;-86
2022/10/29 10:42:38;;;;;;;8.00;3.97;;;;;;;20.68;64.19;98824.41;4992429;28;20030;-86
2022/10/29 10:45:26;;;;;;;9.88;4.30;;;;;;;20.95;61.19;98824.47;4986873;28;20039;-85
2022/10/29 10:47:57;;;;;;;8.35;4.80;;;;;;;21.11;61.78;98826.22;4988609;28;20697;-85
2022/10/29 10:50:33;;;;;;;8.95;4.45;;;;;;;21.36;60.43;98807.06;4989284;28;20066;-85
2022/10/29 10:53:16;;;;;;;7.75;4.57;;;;;;;21.52;60.12;98816.81;4988773;28;20038;-85
2022/10/29 10:55:56;;;;;;;10.32;4.50;;;;;;;21.53;59.56;98814.94;4990507;28;20042;-85
2022/10/29 10:58:43;;;;;;;10.75;5.20;;;;;;;21.58;59.00;98812.34;4990509;28;20038;-85
2022/10/29 11:01:18;;;;;;;11.90;5.07;;;;;;;21.61;60.37;98812.66;4991572;28;20118;-85
2022/10/29 11:03:59;;;;;;;11.73;5.38;;;;;;;21.50;59.38;98804.78;4990840;28;20085;-85
2022/10/29 11:06:33;;;;;;;7.88;4.15;;;;;;;21.55;60.19;98808.31;4989185;28;20083;-86
2022/10/29 11:09:21;;;;;;;9.50;5.18;;;;;;;21.65;60.52;98796.91;4990907;28;20035;-85
2022/10/29 11:12:06;;;;;;;9.13;4.50;;;;;;;21.80;59.66;98789.03;4993221;28;20033;-86
2022/10/29 11:14:43;;;;;;;9.80;4.60;;;;;;;21.87;57.81;98789.63;4991851;28;20041;-85
2022/10/29 11:17:54;;;;;;;8.30;5.80;;;;;;;22.20;59.28;98794.94;4991796;28;20031;-86
2022/10/29 11:20:30;;;;;;;8.40;4.53;;;;;;;22.12;58.09;98781.00;4977702;28;20093;-86
2022/10/29 11:23:29;;;;;;;9.90;4.75;;;;;;;22.10;59.85;98799.16;4988982;28;20128;-86
2022/10/29 11:26:21;;;;;;;12.32;5.07;;;;;;;21.92;59.45;98783.50;4986327;28;20458;-86
2022/10/29 11:29:02;;;;;;;10.32;4.22;;;;;;;21.99;59.42;98792.09;4991307;28;20474;-86
2022/10/29 11:32:03;;;;;;;7.85;4.38;;;;;;;21.91;58.32;98789.91;4979406;28;20604;-86
2022/10/29 11:35:03;;;;;;;9.23;5.25;;;;;;;21.86;59.45;98788.00;4989452;28;20038;-85
2022/10/29 11:38:33;;;;;;;13.02;5.10;;;;;;;21.67;60.23;98780.66;4987836;28;20035;-86
2022/10/29 11:41:17;;;;;;;11.17;4.77;;;;;;;21.46;60.57;98775.13;4926684;29;20040;-87
2022/10/29 11:43:42;;;;;;;9.60;4.65;;;;;;;21.44;60.57;98768.44;4991145;28;20068;-86
2022/10/29 11:46:46;;;;;;;13.07;5.35;;;;;;;21.39;61.15;98771.88;4984483;28;20038;-86
2022/10/29 11:49:32;;;;;;;11.65;4.78;;;;;;;21.38;62.16;98768.41;4989321;28;20034;-86
2022/10/29 11:52:03;;;;;;;11.65;5.00;;;;;;;21.28;62.05;98756.78;4996401;28;20045;-86
2022/10/29 11:55:00;;;;;;;10.05;5.15;;;;;;;21.31;62.09;98756.34;4989791;28;20034;-86
2022/10/29 11:57:56;;;;;;;13.50;5.53;;;;;;;21.32;62.60;98756.06;4990437;28;20041;-86